sensor_id;sensor_type;location;lat;lon;timestamp;pressure;altitude;pressure_sealevel;temperature;humidity
10460;BME280;54412;51.206;6.888;2024-03-23T00:56:19;100255.91;;;10.58;93.85
10460;BME280;54412;51.206;6.888;2024-03-23T00:58:45;100242.78;;;10.56;93.24
10460;BME280;54412;51.206;6.888;2024-03-23T01:01:11;100249.88;;;10.56;93.38
10460;BME280;54412;51.206;6.888;2024-03-23T01:03:36;100239.84;;;10.46;93.66
10460;BME280;54412;51.206;6.888;2024-03-23T01:06:03;100248.94;;;10.57;92.11
10460;BME280;54412;51.206;6.888;2024-03-23T01:08:32;100243.75;;;10.39;92.30
10460;BME280;54412;51.206;6.888;2024-03-23T01:11:01;100242.41;;;10.32;92.50
10460;BME280;54412;51.206;6.888;2024-03-23T01:13:28;100234.06;;;10.56;91.54
10460;BME280;54412;51.206;6.888;2024-03-23T01:15:55;100233.38;;;10.52;90.91
10460;BME280;54412;51.206;6.888;2024-03-23T01:18:23;100227.56;;;10.45;91.44
10460;BME280;54412;51.206;6.888;2024-03-23T01:20:49;100223.25;;;10.29;92.95
10460;BME280;54412;51.206;6.888;2024-03-23T01:23:15;100218.72;;;10.15;94.25
10460;BME280;54412;51.206;6.888;2024-03-23T01:25:41;100224.34;;;10.40;91.67
10460;BME280;54412;51.206;6.888;2024-03-23T01:28:07;100228.59;;;10.27;93.01
10460;BME280;54412;51.206;6.888;2024-03-23T01:30:34;100228.59;;;10.12;93.78
10460;BME280;54412;51.206;6.888;2024-03-23T01:33:01;100228.59;;;10.12;92.98
10460;BME280;54412;51.206;6.888;2024-03-23T01:35:26;100226.13;;;10.24;92.31
10460;BME280;54412;51.206;6.888;2024-03-23T01:37:52;100230.31;;;10.28;93.55
10460;BME280;54412;51.206;6.888;2024-03-23T01:40:18;100226.38;;;10.51;92.21
10460;BME280;54412;51.206;6.888;2024-03-23T01:42:58;100231.03;;;10.15;92.35
10460;BME280;54412;51.206;6.888;2024-03-23T01:45:24;100232.09;;;10.28;91.86
10460;BME280;54412;51.206;6.888;2024-03-23T01:47:51;100226.13;;;10.09;92.60
10460;BME280;54412;51.206;6.888;2024-03-23T01:50:19;100229.38;;;10.29;90.43
10460;BME280;54412;51.206;6.888;2024-03-23T01:52:46;100220.47;;;9.99;90.22
10460;BME280;54412;51.206;6.888;2024-03-23T01:55:11;100241.72;;;10.44;89.31
10460;BME280;54412;51.206;6.888;2024-03-23T01:57:37;100242.91;;;10.06;88.88
10460;BME280;54412;51.206;6.888;2024-03-23T02:00:04;100252.69;;;10.04;88.90
10460;BME280;54412;51.206;6.888;2024-03-23T02:02:30;100242.53;;;9.81;90.10
10460;BME280;54412;51.206;6.888;2024-03-23T02:04:56;100232.06;;;9.80;90.11
10460;BME280;54412;51.206;6.888;2024-03-23T02:07:21;100225.44;;;9.73;89.99
10460;BME280;54412;51.206;6.888;2024-03-23T02:09:47;100221.44;;;9.81;89.98
10460;BME280;54412;51.206;6.888;2024-03-23T02:12:13;100224.75;;;9.69;89.59
10460;BME280;54412;51.206;6.888;2024-03-23T02:14:38;100222.06;;;9.86;89.39
10460;BME280;54412;51.206;6.888;2024-03-23T02:17:04;100213.22;;;9.87;88.45
10460;BME280;54412;51.206;6.888;2024-03-23T02:19:30;100208.34;;;9.64;89.22
10460;BME280;54412;51.206;6.888;2024-03-23T02:21:55;100216.34;;;9.78;89.11
10460;BME280;54412;51.206;6.888;2024-03-23T02:24:21;100203.22;;;9.61;89.10
10460;BME280;54412;51.206;6.888;2024-03-23T02:26:47;100199.44;;;9.82;86.63
10460;BME280;54412;51.206;6.888;2024-03-23T02:29:14;100203.03;;;9.97;86.15
10460;BME280;54412;51.206;6.888;2024-03-23T02:31:40;100194.03;;;10.01;85.43
10460;BME280;54412;51.206;6.888;2024-03-23T02:34:06;100190.81;;;9.96;85.88
10460;BME280;54412;51.206;6.888;2024-03-23T02:36:31;100194.06;;;9.68;87.34
10460;BME280;54412;51.206;6.888;2024-03-23T02:38:57;100195.19;;;9.80;86.91
10460;BME280;54412;51.206;6.888;2024-03-23T02:41:23;100193.00;;;9.88;87.99
10460;BME280;54412;51.206;6.888;2024-03-23T02:43:52;100209.22;;;9.80;88.62
10460;BME280;54412;51.206;6.888;2024-03-23T02:46:18;100208.66;;;9.58;90.65
10460;BME280;54412;51.206;6.888;2024-03-23T02:48:44;100218.31;;;9.75;90.53
10460;BME280;54412;51.206;6.888;2024-03-23T02:51:10;100213.38;;;9.84;90.25
10460;BME280;54412;51.206;6.888;2024-03-23T02:53:35;100211.72;;;9.66;91.07
10460;BME280;54412;51.206;6.888;2024-03-23T02:56:01;100220.69;;;9.79;90.77
10460;BME280;54412;51.206;6.888;2024-03-23T02:58:27;100210.31;;;9.76;89.57
10460;BME280;54412;51.206;6.888;2024-03-23T03:00:53;100211.44;;;9.88;89.17
10460;BME280;54412;51.206;6.888;2024-03-23T03:03:18;100214.41;;;9.82;89.03
10460;BME280;54412;51.206;6.888;2024-03-23T03:05:44;100209.53;;;9.74;89.71
10460;BME280;54412;51.206;6.888;2024-03-23T03:08:10;100208.88;;;9.53;91.04
10460;BME280;54412;51.206;6.888;2024-03-23T03:10:35;100207.84;;;9.73;90.46
10460;BME280;54412;51.206;6.888;2024-03-23T03:13:02;100201.13;;;9.68;90.19
10460;BME280;54412;51.206;6.888;2024-03-23T03:15:28;100195.41;;;9.60;91.50
10460;BME280;54412;51.206;6.888;2024-03-23T03:17:53;100196.75;;;9.51;92.50
10460;BME280;54412;51.206;6.888;2024-03-23T03:20:19;100188.47;;;9.74;90.88
10460;BME280;54412;51.206;6.888;2024-03-23T03:22:47;100181.63;;;9.87;89.37
10460;BME280;54412;51.206;6.888;2024-03-23T03:25:13;100177.53;;;9.49;90.98
10460;BME280;54412;51.206;6.888;2024-03-23T03:27:38;100192.44;;;9.66;90.25
10460;BME280;54412;51.206;6.888;2024-03-23T03:30:05;100197.56;;;9.69;91.32
10460;BME280;54412;51.206;6.888;2024-03-23T03:32:33;100200.59;;;9.61;91.61
10460;BME280;54412;51.206;6.888;2024-03-23T03:34:58;100193.75;;;9.74;90.06
10460;BME280;54412;51.206;6.888;2024-03-23T03:37:24;100196.00;;;9.65;90.63
10460;BME280;54412;51.206;6.888;2024-03-23T03:39:50;100208.09;;;9.69;91.04
10460;BME280;54412;51.206;6.888;2024-03-23T03:42:16;100193.72;;;9.59;92.60
10460;BME280;54412;51.206;6.888;2024-03-23T03:44:42;100201.81;;;9.71;91.99
10460;BME280;54412;51.206;6.888;2024-03-23T03:47:07;100206.94;;;9.57;92.39
10460;BME280;54412;51.206;6.888;2024-03-23T03:49:33;100201.75;;;9.56;92.93
10460;BME280;54412;51.206;6.888;2024-03-23T03:51:59;100200.19;;;9.69;91.10
10460;BME280;54412;51.206;6.888;2024-03-23T03:54:26;100202.31;;;9.62;91.31
10460;BME280;54412;51.206;6.888;2024-03-23T03:56:52;100203.59;;;9.86;91.22
10460;BME280;54412;51.206;6.888;2024-03-23T03:59:17;100204.69;;;9.67;91.75
10460;BME280;54412;51.206;6.888;2024-03-23T04:01:43;100193.22;;;9.68;92.05
10460;BME280;54412;51.206;6.888;2024-03-23T04:04:09;100194.34;;;9.79;90.99
10460;BME280;54412;51.206;6.888;2024-03-23T04:06:34;100192.44;;;9.66;91.68
10460;BME280;54412;51.206;6.888;2024-03-23T04:09:01;100186.56;;;9.61;91.79
10460;BME280;54412;51.206;6.888;2024-03-23T04:11:26;100191.97;;;9.42;92.35
10460;BME280;54412;51.206;6.888;2024-03-23T04:13:52;100190.78;;;9.47;93.00
10460;BME280;54412;51.206;6.888;2024-03-23T04:16:34;100188.16;;;9.47;93.40
10460;BME280;54412;51.206;6.888;2024-03-23T04:19:01;100198.31;;;9.71;92.36
10460;BME280;54412;51.206;6.888;2024-03-23T04:21:26;100200.78;;;9.74;91.90
10460;BME280;54412;51.206;6.888;2024-03-23T04:23:52;100191.41;;;9.52;92.50
10460;BME280;54412;51.206;6.888;2024-03-23T04:26:17;100189.75;;;9.17;92.64
10460;BME280;54412;51.206;6.888;2024-03-23T04:28:43;100185.97;;;9.56;92.23
10460;BME280;54412;51.206;6.888;2024-03-23T04:31:09;100182.41;;;9.57;92.26
10460;BME280;54412;51.206;6.888;2024-03-23T04:33:35;100189.94;;;9.47;92.31
10460;BME280;54412;51.206;6.888;2024-03-23T04:36:01;100193.72;;;9.41;93.23
10460;BME280;54412;51.206;6.888;2024-03-23T04:38:28;100202.19;;;9.31;92.60
10460;BME280;54412;51.206;6.888;2024-03-23T04:40:58;100208.13;;;9.34;92.89
10460;BME280;54412;51.206;6.888;2024-03-23T04:43:25;100195.38;;;9.27;94.24
10460;BME280;54412;51.206;6.888;2024-03-23T04:45:51;100199.88;;;9.08;93.52
10460;BME280;54412;51.206;6.888;2024-03-23T04:48:20;100197.47;;;9.20;93.50
10460;BME280;54412;51.206;6.888;2024-03-23T04:50:46;100201.34;;;9.13;92.80
10460;BME280;54412;51.206;6.888;2024-03-23T04:53:12;100197.66;;;9.17;92.56
10460;BME280;54412;51.206;6.888;2024-03-23T04:55:38;100197.31;;;9.40;91.43
10460;BME280;54412;51.206;6.888;2024-03-23T04:58:03;100199.47;;;9.49;90.85
10460;BME280;54412;51.206;6.888;2024-03-23T05:00:29;100195.94;;;9.33;91.16
10460;BME280;54412;51.206;6.888;2024-03-23T05:02:55;100189.25;;;9.43;90.90
10460;BME280;54412;51.206;6.888;2024-03-23T05:05:20;100187.34;;;9.13;90.46
10460;BME280;54412;51.206;6.888;2024-03-23T05:07:46;100191.88;;;9.26;90.88
10460;BME280;54412;51.206;6.888;2024-03-23T05:10:12;100193.50;;;9.29;91.46
10460;BME280;54412;51.206;6.888;2024-03-23T05:12:39;100190.88;;;9.29;91.16
10460;BME280;54412;51.206;6.888;2024-03-23T05:15:06;100196.38;;;9.07;90.88
10460;BME280;54412;51.206;6.888;2024-03-23T05:17:33;100202.66;;;9.05;92.36
10460;BME280;54412;51.206;6.888;2024-03-23T05:19:59;100211.53;;;9.19;92.88
10460;BME280;54412;51.206;6.888;2024-03-23T05:22:25;100211.88;;;9.13;92.59
10460;BME280;54412;51.206;6.888;2024-03-23T05:24:51;100208.00;;;9.03;91.65
10460;BME280;54412;51.206;6.888;2024-03-23T05:27:16;100203.97;;;8.43;94.61
10460;BME280;54412;51.206;6.888;2024-03-23T05:29:42;100195.22;;;8.62;95.48
10460;BME280;54412;51.206;6.888;2024-03-23T05:32:08;100203.50;;;8.88;94.32
10460;BME280;54412;51.206;6.888;2024-03-23T05:34:33;100205.03;;;8.92;93.44
10460;BME280;54412;51.206;6.888;2024-03-23T05:36:59;100215.25;;;8.98;93.60
10460;BME280;54412;51.206;6.888;2024-03-23T05:39:25;100202.13;;;8.98;93.05
10460;BME280;54412;51.206;6.888;2024-03-23T05:41:50;100203.06;;;8.97;93.63
10460;BME280;54412;51.206;6.888;2024-03-23T05:44:16;100194.13;;;9.00;96.14
10460;BME280;54412;51.206;6.888;2024-03-23T05:46:42;100201.03;;;9.02;97.01
10460;BME280;54412;51.206;6.888;2024-03-23T05:49:14;100205.81;;;9.28;96.70
10460;BME280;54412;51.206;6.888;2024-03-23T05:51:39;100204.94;;;9.45;94.48
10460;BME280;54412;51.206;6.888;2024-03-23T05:54:05;100200.63;;;9.44;94.43
10460;BME280;54412;51.206;6.888;2024-03-23T05:56:31;100208.16;;;9.67;93.80
10460;BME280;54412;51.206;6.888;2024-03-23T05:58:58;100192.16;;;9.55;92.32
10460;BME280;54412;51.206;6.888;2024-03-23T06:01:23;100202.97;;;9.33;92.00
10460;BME280;54412;51.206;6.888;2024-03-23T06:03:49;100199.72;;;9.28;93.44
10460;BME280;54412;51.206;6.888;2024-03-23T06:06:15;100203.66;;;9.36;93.70
10460;BME280;54412;51.206;6.888;2024-03-23T06:08:40;100213.25;;;9.37;92.89
10460;BME280;54412;51.206;6.888;2024-03-23T06:11:06;100213.09;;;9.40;92.35
10460;BME280;54412;51.206;6.888;2024-03-23T06:13:33;100217.19;;;9.29;92.67
10460;BME280;54412;51.206;6.888;2024-03-23T06:16:00;100224.31;;;9.44;91.85
10460;BME280;54412;51.206;6.888;2024-03-23T06:18:25;100234.22;;;9.39;91.60
10460;BME280;54412;51.206;6.888;2024-03-23T06:20:51;100239.94;;;9.47;91.40
10460;BME280;54412;51.206;6.888;2024-03-23T06:23:17;100237.41;;;9.45;91.64
10460;BME280;54412;51.206;6.888;2024-03-23T06:25:46;100232.53;;;9.21;91.98
10460;BME280;54412;51.206;6.888;2024-03-23T06:28:12;100223.47;;;9.09;93.11
10460;BME280;54412;51.206;6.888;2024-03-23T06:30:37;100222.63;;;9.09;93.14
10460;BME280;54412;51.206;6.888;2024-03-23T06:33:03;100220.00;;;8.92;93.28
10460;BME280;54412;51.206;6.888;2024-03-23T06:35:31;100219.91;;;9.10;93.55
10460;BME280;54412;51.206;6.888;2024-03-23T06:37:57;100219.00;;;9.11;93.74
10460;BME280;54412;51.206;6.888;2024-03-23T06:40:23;100217.13;;;9.30;92.49
10460;BME280;54412;51.206;6.888;2024-03-23T06:42:49;100221.47;;;9.14;92.61
10460;BME280;54412;51.206;6.888;2024-03-23T06:45:16;100228.03;;;9.23;93.21
10460;BME280;54412;51.206;6.888;2024-03-23T06:47:42;100232.75;;;9.50;91.54
10460;BME280;54412;51.206;6.888;2024-03-23T06:50:08;100228.00;;;8.89;94.08
10460;BME280;54412;51.206;6.888;2024-03-23T06:52:35;100233.75;;;8.97;94.50
10460;BME280;54412;51.206;6.888;2024-03-23T06:55:01;100232.22;;;9.10;94.39
10460;BME280;54412;51.206;6.888;2024-03-23T06:57:29;100237.63;;;9.24;92.50
10460;BME280;54412;51.206;6.888;2024-03-23T06:59:55;100237.81;;;9.21;93.91
10460;BME280;54412;51.206;6.888;2024-03-23T07:02:21;100237.56;;;9.42;92.21
10460;BME280;54412;51.206;6.888;2024-03-23T07:04:46;100243.44;;;9.30;93.58
10460;BME280;54412;51.206;6.888;2024-03-23T07:07:12;100244.44;;;9.62;93.35
10460;BME280;54412;51.206;6.888;2024-03-23T07:09:38;100245.94;;;9.33;93.00
10460;BME280;54412;51.206;6.888;2024-03-23T07:12:04;100248.09;;;9.75;92.46
10460;BME280;54412;51.206;6.888;2024-03-23T07:14:30;100247.00;;;9.79;91.81
10460;BME280;54412;51.206;6.888;2024-03-23T07:16:55;100239.81;;;10.15;90.74
10460;BME280;54412;51.206;6.888;2024-03-23T07:19:22;100240.41;;;9.88;91.74
10460;BME280;54412;51.206;6.888;2024-03-23T07:21:48;100245.81;;;9.69;91.69
10460;BME280;54412;51.206;6.888;2024-03-23T07:24:13;100245.44;;;9.60;91.70
10460;BME280;54412;51.206;6.888;2024-03-23T07:26:39;100248.81;;;10.11;89.99
10460;BME280;54412;51.206;6.888;2024-03-23T07:29:06;100240.34;;;9.89;90.51
10460;BME280;54412;51.206;6.888;2024-03-23T07:31:32;100232.63;;;9.69;91.10
10460;BME280;54412;51.206;6.888;2024-03-23T07:33:58;100239.31;;;9.59;92.90
10460;BME280;54412;51.206;6.888;2024-03-23T07:36:24;100246.63;;;10.02;90.30
10460;BME280;54412;51.206;6.888;2024-03-23T07:38:50;100249.97;;;10.06;89.68
10460;BME280;54412;51.206;6.888;2024-03-23T07:41:20;100248.66;;;10.30;89.61
10460;BME280;54412;51.206;6.888;2024-03-23T07:43:47;100250.81;;;10.39;87.51
10460;BME280;54412;51.206;6.888;2024-03-23T07:46:15;100251.47;;;9.94;88.08
10460;BME280;54412;51.206;6.888;2024-03-23T07:48:41;100242.00;;;9.75;89.30
10460;BME280;54412;51.206;6.888;2024-03-23T07:51:16;100251.88;;;9.87;89.16
10460;BME280;54412;51.206;6.888;2024-03-23T07:53:44;100246.84;;;10.15;88.64
10460;BME280;54412;51.206;6.888;2024-03-23T07:56:15;100249.44;;;10.47;88.68
10460;BME280;54412;51.206;6.888;2024-03-23T07:58:41;100243.31;;;10.47;88.15
10460;BME280;54412;51.206;6.888;2024-03-23T08:01:17;100252.34;;;10.43;86.62
10460;BME280;54412;51.206;6.888;2024-03-23T08:03:46;100246.09;;;10.60;87.03
10460;BME280;54412;51.206;6.888;2024-03-23T08:06:17;100262.81;;;10.76;86.06
10460;BME280;54412;51.206;6.888;2024-03-23T08:08:47;100254.31;;;11.30;84.65
10460;BME280;54412;51.206;6.888;2024-03-23T08:11:13;100251.28;;;11.22;83.30
10460;BME280;54412;51.206;6.888;2024-03-23T08:13:41;100241.91;;;11.76;82.88
10460;BME280;54412;51.206;6.888;2024-03-23T08:16:07;100244.53;;;12.04;83.26
10460;BME280;54412;51.206;6.888;2024-03-23T08:18:37;100249.38;;;11.83;79.87
10460;BME280;54412;51.206;6.888;2024-03-23T08:21:05;100253.22;;;11.78;78.78
10460;BME280;54412;51.206;6.888;2024-03-23T08:23:33;100247.41;;;11.57;78.81
10460;BME280;54412;51.206;6.888;2024-03-23T08:26:02;100253.59;;;11.72;77.44
10460;BME280;54412;51.206;6.888;2024-03-23T08:28:28;100254.16;;;11.77;77.08
10460;BME280;54412;51.206;6.888;2024-03-23T08:30:55;100251.25;;;11.51;75.91
10460;BME280;54412;51.206;6.888;2024-03-23T08:33:22;100257.38;;;11.38;75.92
10460;BME280;54412;51.206;6.888;2024-03-23T08:36:17;100256.47;;;10.78;76.84
10460;BME280;54412;51.206;6.888;2024-03-23T08:38:43;100257.88;;;10.54;77.29
10460;BME280;54412;51.206;6.888;2024-03-23T08:41:10;100256.59;;;11.06;78.57
10460;BME280;54412;51.206;6.888;2024-03-23T08:43:40;100247.56;;;10.81;78.08
10460;BME280;54412;51.206;6.888;2024-03-23T08:46:15;100256.50;;;11.37;76.64
10460;BME280;54412;51.206;6.888;2024-03-23T08:48:46;100253.19;;;11.64;78.84
10460;BME280;54412;51.206;6.888;2024-03-23T08:51:16;100248.59;;;11.81;76.24
10460;BME280;54412;51.206;6.888;2024-03-23T08:53:43;100259.47;;;11.47;71.44
10460;BME280;54412;51.206;6.888;2024-03-23T08:56:10;100259.72;;;11.42;71.94
10460;BME280;54412;51.206;6.888;2024-03-23T08:58:37;100247.81;;;10.61;72.12
10460;BME280;54412;51.206;6.888;2024-03-23T09:01:09;100270.19;;;10.69;72.56
10460;BME280;54412;51.206;6.888;2024-03-23T09:03:36;100268.66;;;10.65;73.46
10460;BME280;54412;51.206;6.888;2024-03-23T09:06:13;100266.03;;;11.26;71.49
10460;BME280;54412;51.206;6.888;2024-03-23T09:08:39;100255.81;;;10.59;68.81
10460;BME280;54412;51.206;6.888;2024-03-23T09:11:09;100258.22;;;10.48;70.51
10460;BME280;54412;51.206;6.888;2024-03-23T09:13:37;100261.81;;;11.08;69.14
10460;BME280;54412;51.206;6.888;2024-03-23T09:16:04;100261.81;;;11.81;68.27
10460;BME280;54412;51.206;6.888;2024-03-23T09:18:35;100259.47;;;12.19;65.51
10460;BME280;54412;51.206;6.888;2024-03-23T09:21:11;100258.72;;;11.75;65.63
10460;BME280;54412;51.206;6.888;2024-03-23T09:23:37;100259.72;;;11.42;67.58
10460;BME280;54412;51.206;6.888;2024-03-23T09:26:05;100256.47;;;11.23;66.98
10460;BME280;54412;51.206;6.888;2024-03-23T09:28:34;100260.31;;;10.73;69.46
10460;BME280;54412;51.206;6.888;2024-03-23T09:31:08;100263.13;;;10.70;70.41
10460;BME280;54412;51.206;6.888;2024-03-23T09:33:35;100253.50;;;10.84;69.87
10460;BME280;54412;51.206;6.888;2024-03-23T09:36:05;100258.44;;;11.20;69.26
10460;BME280;54412;51.206;6.888;2024-03-23T09:38:32;100258.44;;;11.20;66.95
10460;BME280;54412;51.206;6.888;2024-03-23T09:40:58;100251.16;;;11.97;65.65
10460;BME280;54412;51.206;6.888;2024-03-23T09:43:25;100245.44;;;12.59;64.05
10460;BME280;54412;51.206;6.888;2024-03-23T09:45:52;100240.69;;;12.91;64.67
10460;BME280;54412;51.206;6.888;2024-03-23T09:48:18;100241.22;;;12.69;63.04
10460;BME280;54412;51.206;6.888;2024-03-23T09:50:45;100255.09;;;12.73;61.64
10460;BME280;54412;51.206;6.888;2024-03-23T09:53:13;100242.25;;;12.40;61.94
10460;BME280;54412;51.206;6.888;2024-03-23T09:55:44;100241.22;;;12.69;62.26
10460;BME280;54412;51.206;6.888;2024-03-23T09:58:15;100247.84;;;12.35;61.13
10460;BME280;54412;51.206;6.888;2024-03-23T10:00:41;100235.91;;;12.42;63.62
10460;BME280;54412;51.206;6.888;2024-03-23T10:03:07;100240.69;;;12.64;63.45
10460;BME280;54412;51.206;6.888;2024-03-23T10:05:34;100238.81;;;13.44;62.07
10460;BME280;54412;51.206;6.888;2024-03-23T10:08:17;100255.50;;;12.67;58.81
10460;BME280;54412;51.206;6.888;2024-03-23T10:10:45;100245.97;;;11.95;57.88
10460;BME280;54412;51.206;6.888;2024-03-23T10:13:11;100241.50;;;12.24;59.33
10460;BME280;54412;51.206;6.888;2024-03-23T10:15:56;100238.03;;;12.09;57.51
10460;BME280;54412;51.206;6.888;2024-03-23T10:18:23;100241.88;;;12.18;55.63
10460;BME280;54412;51.206;6.888;2024-03-23T10:23:33;100241.16;;;11.88;57.22
10460;BME280;54412;51.206;6.888;2024-03-23T10:26:18;100230.41;;;11.91;58.38
10460;BME280;54412;51.206;6.888;2024-03-23T10:31:20;100229.84;;;13.08;53.27
10460;BME280;54412;51.206;6.888;2024-03-23T10:33:47;100223.91;;;13.56;54.44
10460;BME280;54412;51.206;6.888;2024-03-23T10:36:14;100243.94;;;13.08;53.26
10460;BME280;54412;51.206;6.888;2024-03-23T10:38:42;100264.34;;;12.11;57.30
10460;BME280;54412;51.206;6.888;2024-03-23T10:41:09;100281.31;;;11.35;57.68
10460;BME280;54412;51.206;6.888;2024-03-23T10:43:37;100303.78;;;10.97;61.45
10460;BME280;54412;51.206;6.888;2024-03-23T10:46:04;100287.28;;;10.62;66.08
10460;BME280;54412;51.206;6.888;2024-03-23T10:48:32;100297.78;;;10.79;68.26
10460;BME280;54412;51.206;6.888;2024-03-23T10:50:58;100296.22;;;10.28;69.82
10460;BME280;54412;51.206;6.888;2024-03-23T10:53:27;100298.00;;;9.78;71.67
10460;BME280;54412;51.206;6.888;2024-03-23T10:55:55;100308.25;;;10.00;71.45
10460;BME280;54412;51.206;6.888;2024-03-23T10:58:28;100302.94;;;9.84;71.44
10460;BME280;54412;51.206;6.888;2024-03-23T11:00:55;100300.56;;;9.80;72.91
10460;BME280;54412;51.206;6.888;2024-03-23T11:03:36;100318.44;;;9.90;71.69
10460;BME280;54412;51.206;6.888;2024-03-23T11:06:03;100325.13;;;9.80;71.39
10460;BME280;54412;51.206;6.888;2024-03-23T11:08:40;100327.50;;;9.50;72.43
10460;BME280;54412;51.206;6.888;2024-03-23T11:11:22;100319.28;;;9.22;73.08
10460;BME280;54412;51.206;6.888;2024-03-23T11:13:53;100300.31;;;9.16;75.33
10460;BME280;54412;51.206;6.888;2024-03-23T11:16:28;100293.19;;;9.01;75.24
10460;BME280;54412;51.206;6.888;2024-03-23T11:19:34;100292.81;;;9.08;75.91
10460;BME280;54412;51.206;6.888;2024-03-23T11:22:02;100281.91;;;9.50;77.71
10460;BME280;54412;51.206;6.888;2024-03-23T11:24:29;100292.03;;;9.58;78.01
10460;BME280;54412;51.206;6.888;2024-03-23T11:26:54;100280.78;;;9.88;75.52
10460;BME280;54412;51.206;6.888;2024-03-23T11:29:20;100285.38;;;10.00;73.91
10460;BME280;54412;51.206;6.888;2024-03-23T11:31:51;100270.63;;;9.81;75.94
10460;BME280;54412;51.206;6.888;2024-03-23T11:34:17;100274.31;;;9.94;75.45
10460;BME280;54412;51.206;6.888;2024-03-23T11:36:44;100269.25;;;10.23;73.78
10460;BME280;54412;51.206;6.888;2024-03-23T11:39:14;100274.22;;;11.35;69.44
10460;BME280;54412;51.206;6.888;2024-03-23T11:41:51;100260.72;;;12.68;66.54
10460;BME280;54412;51.206;6.888;2024-03-23T11:44:20;100268.69;;;13.34;63.54
10460;BME280;54412;51.206;6.888;2024-03-23T11:46:46;100264.13;;;13.23;60.15
10460;BME280;54412;51.206;6.888;2024-03-23T11:51:56;100262.09;;;14.65;60.68
10460;BME280;54412;51.206;6.888;2024-03-23T11:54:24;100260.47;;;14.14;56.97
10460;BME280;54412;51.206;6.888;2024-03-23T11:56:58;100245.44;;;14.87;58.39
10460;BME280;54412;51.206;6.888;2024-03-23T11:59:41;100299.47;;;14.62;56.43
10460;BME280;54412;51.206;6.888;2024-03-23T12:02:12;100320.34;;;12.45;60.99
10460;BME280;54412;51.206;6.888;2024-03-23T12:04:40;100299.97;;;11.32;64.57
10460;BME280;54412;51.206;6.888;2024-03-23T12:07:19;100275.97;;;10.44;65.91
10460;BME280;54412;51.206;6.888;2024-03-23T12:09:47;100266.34;;;10.43;68.72
10460;BME280;54412;51.206;6.888;2024-03-23T12:12:27;100281.66;;;10.04;71.50
10460;BME280;54412;51.206;6.888;2024-03-23T12:15:05;100290.50;;;10.03;70.00
10460;BME280;54412;51.206;6.888;2024-03-23T12:17:32;100289.81;;;10.00;70.41
10460;BME280;54412;51.206;6.888;2024-03-23T12:19:58;100274.09;;;9.98;68.80
10460;BME280;54412;51.206;6.888;2024-03-23T12:22:24;100278.31;;;9.85;69.08
10460;BME280;54412;51.206;6.888;2024-03-23T12:24:50;100277.47;;;10.00;69.72
10460;BME280;54412;51.206;6.888;2024-03-23T12:27:16;100283.91;;;9.95;70.70
10460;BME280;54412;51.206;6.888;2024-03-23T12:29:42;100290.78;;;9.82;68.17
10460;BME280;54412;51.206;6.888;2024-03-23T12:32:14;100283.91;;;9.11;69.17
10460;BME280;54412;51.206;6.888;2024-03-23T12:34:41;100280.84;;;9.37;68.61
10460;BME280;54412;51.206;6.888;2024-03-23T12:37:08;100286.56;;;10.12;67.93
10460;BME280;54412;51.206;6.888;2024-03-23T12:39:34;100278.88;;;10.07;67.51
10460;BME280;54412;51.206;6.888;2024-03-23T12:42:01;100274.41;;;9.92;69.01
10460;BME280;54412;51.206;6.888;2024-03-23T12:44:28;100282.81;;;9.66;68.18
10460;BME280;54412;51.206;6.888;2024-03-23T12:46:54;100282.34;;;9.41;69.18
10460;BME280;54412;51.206;6.888;2024-03-23T12:49:20;100272.91;;;9.54;69.38
10460;BME280;54412;51.206;6.888;2024-03-23T12:51:55;100271.41;;;9.83;66.94
10460;BME280;54412;51.206;6.888;2024-03-23T12:54:22;100264.09;;;9.88;65.15
10460;BME280;54412;51.206;6.888;2024-03-23T12:56:48;100266.78;;;10.51;63.97
10460;BME280;54412;51.206;6.888;2024-03-23T12:59:14;100260.66;;;11.12;63.19
10460;BME280;54412;51.206;6.888;2024-03-23T13:01:40;100258.94;;;11.26;61.86
10460;BME280;54412;51.206;6.888;2024-03-23T13:04:06;100254.69;;;11.24;59.97
10460;BME280;54412;51.206;6.888;2024-03-23T13:06:31;100261.13;;;11.34;60.49
10460;BME280;54412;51.206;6.888;2024-03-23T13:09:03;100245.97;;;11.67;58.77
10460;BME280;54412;51.206;6.888;2024-03-23T13:11:30;100268.59;;;11.41;58.20
10460;BME280;54412;51.206;6.888;2024-03-23T13:13:56;100243.63;;;11.47;59.62
10460;BME280;54412;51.206;6.888;2024-03-23T13:16:21;100243.94;;;12.82;58.61
10460;BME280;54412;51.206;6.888;2024-03-23T13:18:47;100243.34;;;13.17;55.08
10460;BME280;54412;51.206;6.888;2024-03-23T13:21:13;100288.03;;;11.84;60.24
10460;BME280;54412;51.206;6.888;2024-03-23T13:23:39;100291.53;;;10.80;61.90
10460;BME280;54412;51.206;6.888;2024-03-23T13:26:08;100281.72;;;9.87;67.81
10460;BME280;54412;51.206;6.888;2024-03-23T13:28:33;100267.78;;;9.85;70.89
10460;BME280;54412;51.206;6.888;2024-03-23T13:30:59;100251.13;;;10.00;70.07
10460;BME280;54412;51.206;6.888;2024-03-23T13:33:29;100236.44;;;9.96;72.28
10460;BME280;54412;51.206;6.888;2024-03-23T13:35:57;100225.94;;;10.74;71.73
10460;BME280;54412;51.206;6.888;2024-03-23T13:38:24;100233.16;;;11.45;66.55
10460;BME280;54412;51.206;6.888;2024-03-23T13:40:58;100215.47;;;12.58;65.90
10460;BME280;54412;51.206;6.888;2024-03-23T13:43:25;100225.97;;;13.26;62.89
10460;BME280;54412;51.206;6.888;2024-03-23T13:45:59;100218.50;;;13.57;58.70
10460;BME280;54412;51.206;6.888;2024-03-23T13:48:28;100214.47;;;13.39;58.35
10460;BME280;54412;51.206;6.888;2024-03-23T13:51:03;100222.25;;;13.16;57.66
10460;BME280;54412;51.206;6.888;2024-03-23T13:53:29;100210.50;;;12.40;56.77
10460;BME280;54412;51.206;6.888;2024-03-23T13:55:55;100216.28;;;11.62;59.01
10460;BME280;54412;51.206;6.888;2024-03-23T13:58:22;100224.47;;;11.14;60.43
10460;BME280;54412;51.206;6.888;2024-03-23T14:00:49;100223.16;;;10.46;62.55